createdAt,value
2018-03-27T00:05:52.838Z,98.00
2018-03-27T00:08:23.354Z,98.20
2018-03-27T00:10:52.964Z,97.90
2018-03-27T00:13:22.065Z,98.00
2018-03-27T00:15:51.685Z,98.20
2018-03-27T00:18:20.795Z,98.30
2018-03-27T00:20:50.421Z,98.30
2018-03-27T00:24:02.689Z,98.30
2018-03-27T00:26:31.704Z,98.10
2018-03-27T00:29:11.994Z,98.30
2018-03-27T00:34:41.033Z,98.40
2018-03-27T00:37:21.489Z,98.40
2018-03-27T00:40:01.823Z,98.20
2018-03-27T00:45:20.620Z,98.40
2018-03-27T00:47:51.537Z,98.40
2018-03-27T00:50:23.414Z,98.20
2018-03-27T00:52:54.780Z,98.20
2018-03-27T00:55:24.067Z,98.20
2018-03-27T00:57:53.079Z,98.10
2018-03-27T01:00:27.586Z,98.50
2018-03-27T01:02:59.179Z,98.50
2018-03-27T01:05:29.429Z,98.30
2018-03-27T01:07:58.599Z,98.30
2018-03-27T01:13:05.637Z,98.50
2018-03-27T01:15:35.281Z,98.50
2018-03-27T01:18:05.458Z,98.40
2018-03-27T01:20:35.077Z,98.40
2018-03-27T01:23:05.306Z,98.60
2018-03-27T01:25:34.641Z,98.70
2018-03-27T01:28:05.402Z,98.30
2018-03-27T01:30:34.697Z,98.30
2018-03-27T01:33:03.991Z,98.50
2018-03-27T01:35:33.101Z,98.50
2018-03-27T01:38:02.629Z,98.30
2018-03-27T01:40:32.653Z,98.40
2018-03-27T01:43:01.659Z,98.40
2018-03-27T01:45:31.160Z,98.40
2018-03-27T01:48:01.003Z,98.60
2018-03-27T01:50:31.965Z,98.50
2018-03-27T01:53:01.701Z,98.40
2018-03-27T01:55:31.884Z,98.40
2018-03-27T01:58:01.369Z,98.40
2018-03-27T02:00:31.302Z,98.60
2018-03-27T02:03:02.430Z,98.60
2018-03-27T02:05:34.112Z,98.60
2018-03-27T02:08:05.984Z,98.60
2018-03-27T02:10:35.834Z,98.60
2018-03-27T02:13:10.614Z,98.70
2018-03-27T02:15:44.802Z,98.50
2018-03-27T02:18:19.428Z,98.70
2018-03-27T02:20:54.306Z,99.10
2018-03-27T02:23:23.062Z,98.50
2018-03-27T02:25:52.809Z,98.60
2018-03-27T02:28:29.113Z,99.00
2018-03-27T02:35:46.681Z,99.00
2018-03-27T02:38:16.173Z,99.20
2018-03-27T02:40:46.026Z,99.10
2018-03-27T02:46:20.459Z,99.10
2018-03-27T02:48:49.274Z,99.00
2018-03-27T02:51:18.825Z,98.90
2018-03-27T02:53:48.270Z,98.90
2018-03-27T02:56:18.067Z,98.90
2018-03-27T02:58:47.578Z,98.90
2018-03-27T03:01:16.935Z,99.00
2018-03-27T03:10:21.986Z,98.90
2018-03-27T03:12:51.145Z,99.40
2018-03-27T03:15:20.804Z,99.50
2018-03-27T03:18:33.316Z,99.40
2018-03-27T03:21:02.227Z,99.30
2018-03-27T03:23:31.890Z,99.20
2018-03-27T03:26:01.050Z,99.20
2018-03-27T03:28:31.059Z,99.30
2018-03-27T03:31:00.366Z,99.50
2018-03-27T03:33:30.211Z,98.80
2018-03-27T03:35:59.441Z,99.20
2018-03-27T03:38:29.261Z,98.90
2018-03-27T03:40:58.233Z,98.90
2018-03-27T03:43:27.648Z,99.00
2018-03-27T03:45:57.664Z,99.40
2018-03-27T03:48:27.238Z,99.40
2018-03-27T03:53:32.885Z,99.50
2018-03-27T03:56:02.333Z,99.60
2018-03-27T03:58:33.798Z,99.60
2018-03-27T04:04:25.856Z,99.60
2018-03-27T04:06:56.032Z,99.50
2018-03-27T04:09:29.347Z,99.30
2018-03-27T04:14:34.343Z,99.60
2018-03-27T06:31:09.252Z,96.70
2018-03-27T06:36:40.261Z,95.30
2018-03-27T06:39:10.131Z,94.60
2018-03-27T06:41:39.951Z,94.10
2018-03-27T06:44:08.758Z,94.00
2018-03-27T06:46:38.323Z,93.70
2018-03-27T06:49:07.986Z,94.30
2018-03-27T06:51:38.085Z,94.30
2018-03-27T06:54:08.807Z,94.30
2018-03-27T06:56:37.913Z,94.30
2018-03-27T06:59:06.860Z,93.80
2018-03-27T07:01:38.324Z,94.00
2018-03-27T07:04:08.630Z,94.10
2018-03-27T07:06:59.367Z,92.60
2018-03-27T10:58:38.833Z,37.80
2018-03-27T11:07:10.604Z,41.50
2018-03-27T15:40:38.805Z,68.70
2018-03-27T15:43:09.657Z,73.70
2018-03-27T15:45:39.063Z,74.70
2018-03-27T15:48:08.613Z,76.90
2018-03-27T15:50:38.748Z,79.00
2018-03-27T15:53:08.108Z,78.20
2018-03-27T15:55:38.388Z,78.50
2018-03-27T15:58:08.309Z,79.70
2018-03-27T16:00:38.905Z,80.60
2018-03-27T16:03:09.020Z,80.40
2018-03-27T16:05:39.921Z,81.80
2018-03-27T16:08:09.437Z,81.80
2018-03-27T16:10:38.596Z,81.40
2018-03-27T16:13:07.357Z,80.30
2018-03-27T16:15:36.325Z,79.40
2018-03-27T16:18:06.020Z,78.00
2018-03-27T16:20:35.175Z,77.90
2018-03-27T16:23:04.569Z,77.60
2018-03-27T16:25:34.499Z,76.30
2018-03-27T16:28:04.415Z,76.30
2018-03-27T16:30:34.435Z,77.20
2018-03-27T18:04:32.355Z,93.60
2018-03-27T18:07:01.456Z,93.60
2018-03-27T18:09:30.547Z,94.20
2018-03-27T18:11:59.418Z,93.60
2018-03-27T18:14:29.229Z,93.90
2018-03-27T18:16:58.086Z,93.90
2018-03-27T18:19:27.611Z,93.60
2018-03-27T18:21:56.727Z,94.00
2018-03-27T18:24:26.587Z,93.80
2018-03-27T18:26:55.458Z,93.80
2018-03-27T18:29:25.274Z,93.70
2018-03-27T18:31:54.130Z,93.70
2018-03-27T18:34:23.700Z,94.10
2018-03-27T18:36:52.752Z,94.20
2018-03-27T18:39:23.246Z,95.20
2018-03-27T18:41:52.382Z,95.20
2018-03-27T18:44:23.068Z,95.40
2018-03-27T18:46:52.205Z,95.40
2018-03-27T18:49:21.160Z,95.30
2018-03-27T18:51:50.188Z,95.30
2018-03-27T18:54:20.519Z,95.80
2018-03-27T18:56:50.425Z,96.00
2018-03-27T18:59:20.135Z,96.00
2018-03-27T19:01:50.036Z,96.40
2018-03-27T19:04:19.053Z,96.90
2018-03-27T19:06:48.925Z,96.20
2018-03-27T19:09:18.592Z,96.20
2018-03-27T19:11:47.747Z,96.50
2018-03-27T19:14:17.299Z,96.50
2018-03-27T19:16:47.319Z,96.90
2018-03-27T19:19:17.285Z,97.00
2018-03-27T19:21:46.025Z,97.00
2018-03-27T19:24:15.881Z,97.60
2018-03-27T19:26:44.802Z,97.60
2018-03-27T19:29:13.653Z,97.70
2018-03-27T19:31:42.485Z,98.00
2018-03-27T19:34:11.199Z,98.10
2018-03-27T19:36:41.037Z,98.00
2018-03-27T19:39:10.053Z,97.90
2018-03-27T19:41:38.898Z,97.80
2018-03-27T19:44:08.733Z,97.70
2018-03-27T19:46:37.577Z,97.70
2018-03-27T19:49:06.431Z,98.10
2018-03-27T19:51:35.269Z,98.40
2018-03-27T19:54:04.140Z,98.70
2018-03-27T19:56:34.697Z,98.50
2018-03-27T19:59:03.816Z,98.40
2018-03-27T20:01:33.409Z,98.10
2018-03-27T20:04:03.369Z,98.20
2018-03-27T20:06:32.346Z,98.20
2018-03-27T20:09:01.253Z,98.10
2018-03-27T20:11:30.773Z,97.90
2018-03-27T20:14:00.841Z,98.10
2018-03-27T20:16:29.742Z,97.80
2018-03-27T20:19:00.366Z,97.50
2018-03-27T20:21:30.113Z,97.50
2018-03-27T20:26:33.888Z,97.90
2018-03-27T20:29:03.018Z,98.10
2018-03-27T20:31:31.862Z,97.90
2018-03-27T20:34:01.383Z,97.80
2018-03-27T20:36:30.474Z,98.10
2018-03-27T20:39:01.335Z,98.60
2018-03-27T20:41:30.197Z,98.70
2018-03-27T20:43:59.710Z,98.40
2018-03-27T20:46:28.826Z,98.40
2018-03-27T20:48:57.824Z,98.30
2018-03-27T20:51:29.894Z,98.40
2018-03-27T20:54:01.372Z,98.40
2018-03-27T20:56:30.195Z,98.50
2018-03-27T20:58:59.066Z,99.10
2018-03-27T21:01:28.553Z,98.80
2018-03-27T21:03:57.642Z,98.30
2018-03-27T21:06:27.731Z,98.60
2018-03-27T21:12:27.023Z,99.10
2018-03-27T21:14:56.150Z,99.50
2018-03-27T21:17:25.990Z,99.60
2018-03-27T21:19:54.818Z,99.50
2018-03-27T21:22:23.652Z,99.80
2018-03-27T21:27:33.909Z,99.80
2018-03-27T21:30:03.088Z,99.70
2018-03-27T21:32:32.125Z,99.60
2018-03-27T21:35:01.028Z,99.50
2018-03-27T21:37:30.525Z,99.50
2018-03-27T21:39:59.577Z,99.80
2018-03-27T21:42:28.507Z,99.90
2018-03-27T21:44:57.322Z,99.90
2018-03-27T21:47:26.283Z,99.90
2018-03-27T21:49:55.050Z,99.90
2018-03-27T21:52:23.885Z,99.80
2018-03-27T21:54:52.836Z,99.80
2018-03-27T21:57:22.664Z,99.90
2018-03-27T21:59:51.624Z,99.90
2018-03-27T22:02:21.049Z,99.90
2018-03-27T22:04:50.099Z,99.90
2018-03-27T22:07:19.056Z,99.90
2018-03-27T22:09:48.863Z,99.70
2018-03-27T22:12:17.791Z,99.70
2018-03-27T22:14:46.646Z,99.70
2018-03-27T22:17:16.500Z,99.80
2018-03-27T22:19:45.354Z,99.80
2018-03-27T22:22:15.141Z,99.70
2018-03-27T22:24:44.101Z,99.70
2018-03-27T22:27:12.992Z,99.50
2018-03-27T22:29:42.510Z,99.70
2018-03-27T22:32:11.619Z,99.90
2018-03-27T22:34:40.484Z,99.90
2018-03-27T22:37:09.346Z,99.90
2018-03-27T22:39:40.344Z,99.90
2018-03-27T22:42:09.990Z,99.90
2018-03-27T22:44:38.961Z,99.90
2018-03-27T22:47:07.815Z,99.90
2018-03-27T22:49:37.398Z,99.90
2018-03-27T22:52:06.410Z,99.90
2018-03-27T22:54:35.385Z,99.90
2018-03-27T22:57:04.241Z,99.90
2018-03-27T22:59:33.109Z,99.90
2018-03-27T23:02:02.001Z,99.90
2018-03-27T23:04:31.562Z,99.90
2018-03-27T23:07:00.658Z,99.90
2018-03-27T23:09:29.578Z,99.90
2018-03-27T23:11:58.409Z,99.90
2018-03-27T23:14:28.162Z,99.90
2018-03-27T23:16:57.795Z,99.90
2018-03-27T23:19:26.858Z,99.90
2018-03-27T23:21:55.876Z,99.90
2018-03-27T23:24:25.474Z,99.90
2018-03-27T23:26:54.653Z,99.90
2018-03-27T23:29:24.191Z,99.90
2018-03-27T23:31:53.312Z,99.90
2018-03-27T23:34:23.177Z,99.90
2018-03-27T23:36:53.002Z,99.90
2018-03-27T23:39:21.976Z,99.90
2018-03-27T23:41:51.482Z,99.90
2018-03-27T23:44:21.345Z,99.90
2018-03-27T23:46:50.362Z,99.90
2018-03-27T23:49:19.329Z,99.90
2018-03-27T23:51:49.172Z,99.90
2018-03-27T23:54:18.063Z,99.90
2018-03-27T23:56:46.910Z,99.90
2018-03-27T23:59:15.776Z,99.90
